sensor_id;sensor_type;location;lat;lon;timestamp;P1;durP1;ratioP1;P2;durP2;ratioP2
50769;SDS011;36740;48.698;11.472;2024-03-23T00:54:12;11.75;;;7.15;;
50769;SDS011;36740;48.698;11.472;2024-03-23T00:56:58;10.13;;;6.88;;
50769;SDS011;36740;48.698;11.472;2024-03-23T00:59:43;10.27;;;6.20;;
50769;SDS011;36740;48.698;11.472;2024-03-23T01:02:32;10.63;;;7.05;;
50769;SDS011;36740;48.698;11.472;2024-03-23T01:05:18;11.88;;;7.22;;
50769;SDS011;36740;48.698;11.472;2024-03-23T01:08:04;11.75;;;6.90;;
50769;SDS011;36740;48.698;11.472;2024-03-23T01:10:57;13.88;;;7.43;;
50769;SDS011;36740;48.698;11.472;2024-03-23T01:13:44;13.43;;;7.50;;
50769;SDS011;36740;48.698;11.472;2024-03-23T01:16:30;10.98;;;6.60;;
50769;SDS011;36740;48.698;11.472;2024-03-23T01:19:16;9.00;;;6.50;;
50769;SDS011;36740;48.698;11.472;2024-03-23T01:22:01;9.82;;;6.32;;
50769;SDS011;36740;48.698;11.472;2024-03-23T01:24:47;11.02;;;7.45;;
50769;SDS011;36740;48.698;11.472;2024-03-23T01:27:33;14.43;;;7.50;;
50769;SDS011;36740;48.698;11.472;2024-03-23T01:30:19;10.13;;;6.93;;
50769;SDS011;36740;48.698;11.472;2024-03-23T01:33:05;22.88;;;8.48;;
50769;SDS011;36740;48.698;11.472;2024-03-23T01:35:54;8.30;;;5.13;;
50769;SDS011;36740;48.698;11.472;2024-03-23T01:38:40;20.98;;;6.60;;
50769;SDS011;36740;48.698;11.472;2024-03-23T01:41:26;8.10;;;5.20;;
50769;SDS011;36740;48.698;11.472;2024-03-23T01:44:12;11.35;;;6.05;;
50769;SDS011;36740;48.698;11.472;2024-03-23T01:47:08;8.13;;;5.93;;
50769;SDS011;36740;48.698;11.472;2024-03-23T01:49:56;7.13;;;5.47;;
50769;SDS011;36740;48.698;11.472;2024-03-23T01:53:03;8.75;;;4.80;;
50769;SDS011;36740;48.698;11.472;2024-03-23T01:55:55;11.85;;;5.63;;
50769;SDS011;36740;48.698;11.472;2024-03-23T01:58:46;10.18;;;5.53;;
50769;SDS011;36740;48.698;11.472;2024-03-23T02:02:10;4.38;;;3.75;;
50769;SDS011;36740;48.698;11.472;2024-03-23T02:04:56;6.47;;;3.70;;
50769;SDS011;36740;48.698;11.472;2024-03-23T02:07:57;5.85;;;4.18;;
50769;SDS011;36740;48.698;11.472;2024-03-23T02:10:59;9.50;;;5.03;;
50769;SDS011;36740;48.698;11.472;2024-03-23T02:13:46;8.15;;;4.82;;
50769;SDS011;36740;48.698;11.472;2024-03-23T02:19:45;5.88;;;3.60;;
50769;SDS011;36740;48.698;11.472;2024-03-23T02:22:35;7.55;;;4.00;;
50769;SDS011;36740;48.698;11.472;2024-03-23T02:25:40;5.25;;;3.10;;
50769;SDS011;36740;48.698;11.472;2024-03-23T02:28:56;3.83;;;3.38;;
50769;SDS011;36740;48.698;11.472;2024-03-23T02:31:41;4.13;;;3.40;;
50769;SDS011;36740;48.698;11.472;2024-03-23T02:34:30;5.45;;;3.60;;
50769;SDS011;36740;48.698;11.472;2024-03-23T02:37:34;5.97;;;4.68;;
50769;SDS011;36740;48.698;11.472;2024-03-23T02:40:35;8.25;;;4.13;;
50769;SDS011;36740;48.698;11.472;2024-03-23T02:43:28;6.07;;;3.92;;
50769;SDS011;36740;48.698;11.472;2024-03-23T02:50:04;4.93;;;2.75;;
50769;SDS011;36740;48.698;11.472;2024-03-23T03:06:06;6.60;;;4.50;;
50769;SDS011;36740;48.698;11.472;2024-03-23T03:08:52;5.95;;;3.47;;
50769;SDS011;36740;48.698;11.472;2024-03-23T03:11:45;9.40;;;4.07;;
50769;SDS011;36740;48.698;11.472;2024-03-23T03:14:31;9.48;;;4.90;;
50769;SDS011;36740;48.698;11.472;2024-03-23T03:17:17;5.68;;;3.60;;
50769;SDS011;36740;48.698;11.472;2024-03-23T03:20:04;8.43;;;4.35;;
50769;SDS011;36740;48.698;11.472;2024-03-23T03:22:51;6.85;;;3.92;;
50769;SDS011;36740;48.698;11.472;2024-03-23T03:25:39;9.18;;;4.53;;
50769;SDS011;36740;48.698;11.472;2024-03-23T03:28:24;6.13;;;3.22;;
50769;SDS011;36740;48.698;11.472;2024-03-23T03:31:11;8.35;;;5.28;;
50769;SDS011;36740;48.698;11.472;2024-03-23T03:33:59;6.47;;;3.53;;
50769;SDS011;36740;48.698;11.472;2024-03-23T03:36:53;7.30;;;4.10;;
50769;SDS011;36740;48.698;11.472;2024-03-23T03:39:39;3.97;;;2.92;;
50769;SDS011;36740;48.698;11.472;2024-03-23T03:45:56;5.40;;;3.10;;
50769;SDS011;36740;48.698;11.472;2024-03-23T03:49:32;7.18;;;3.55;;
50769;SDS011;36740;48.698;11.472;2024-03-23T03:52:56;3.55;;;2.75;;
50769;SDS011;36740;48.698;11.472;2024-03-23T03:55:41;6.57;;;3.00;;
50769;SDS011;36740;48.698;11.472;2024-03-23T03:58:30;3.60;;;2.88;;
50769;SDS011;36740;48.698;11.472;2024-03-23T04:01:16;5.05;;;2.90;;
50769;SDS011;36740;48.698;11.472;2024-03-23T04:04:02;4.28;;;3.22;;
50769;SDS011;36740;48.698;11.472;2024-03-23T04:06:47;3.67;;;2.47;;
50769;SDS011;36740;48.698;11.472;2024-03-23T04:09:33;5.18;;;3.33;;
50769;SDS011;36740;48.698;11.472;2024-03-23T04:12:19;5.47;;;2.85;;
50769;SDS011;36740;48.698;11.472;2024-03-23T04:15:05;3.70;;;2.30;;
50769;SDS011;36740;48.698;11.472;2024-03-23T04:17:51;5.20;;;2.65;;
50769;SDS011;36740;48.698;11.472;2024-03-23T04:20:37;4.82;;;2.85;;
50769;SDS011;36740;48.698;11.472;2024-03-23T04:23:23;6.50;;;3.08;;
50769;SDS011;36740;48.698;11.472;2024-03-23T04:26:08;3.55;;;2.38;;
50769;SDS011;36740;48.698;11.472;2024-03-23T04:28:54;3.50;;;3.05;;
50769;SDS011;36740;48.698;11.472;2024-03-23T04:31:40;5.45;;;2.95;;
50769;SDS011;36740;48.698;11.472;2024-03-23T04:34:26;5.05;;;2.88;;
50769;SDS011;36740;48.698;11.472;2024-03-23T04:37:17;8.85;;;3.05;;
50769;SDS011;36740;48.698;11.472;2024-03-23T04:40:03;9.27;;;4.15;;
50769;SDS011;36740;48.698;11.472;2024-03-23T04:42:50;6.50;;;3.78;;
50769;SDS011;36740;48.698;11.472;2024-03-23T04:45:35;5.63;;;3.08;;
50769;SDS011;36740;48.698;11.472;2024-03-23T04:48:21;5.43;;;3.25;;
50769;SDS011;36740;48.698;11.472;2024-03-23T04:51:08;4.80;;;3.20;;
50769;SDS011;36740;48.698;11.472;2024-03-23T04:53:53;7.10;;;3.08;;
50769;SDS011;36740;48.698;11.472;2024-03-23T04:56:39;4.72;;;3.28;;
50769;SDS011;36740;48.698;11.472;2024-03-23T04:59:25;6.13;;;3.28;;
50769;SDS011;36740;48.698;11.472;2024-03-23T05:02:11;5.35;;;3.60;;
50769;SDS011;36740;48.698;11.472;2024-03-23T05:04:57;7.68;;;3.80;;
50769;SDS011;36740;48.698;11.472;2024-03-23T05:07:42;4.60;;;3.45;;
50769;SDS011;36740;48.698;11.472;2024-03-23T05:10:28;6.85;;;3.75;;
50769;SDS011;36740;48.698;11.472;2024-03-23T05:13:43;5.72;;;3.70;;
50769;SDS011;36740;48.698;11.472;2024-03-23T05:16:30;6.72;;;4.05;;
50769;SDS011;36740;48.698;11.472;2024-03-23T05:19:16;5.28;;;3.58;;
50769;SDS011;36740;48.698;11.472;2024-03-23T05:22:02;7.03;;;4.00;;
50769;SDS011;36740;48.698;11.472;2024-03-23T05:24:48;5.72;;;2.92;;
50769;SDS011;36740;48.698;11.472;2024-03-23T05:27:37;4.38;;;2.78;;
50769;SDS011;36740;48.698;11.472;2024-03-23T05:30:22;4.20;;;3.30;;
50769;SDS011;36740;48.698;11.472;2024-03-23T05:33:09;5.18;;;3.42;;
50769;SDS011;36740;48.698;11.472;2024-03-23T05:35:58;2.60;;;2.40;;
50769;SDS011;36740;48.698;11.472;2024-03-23T05:38:45;4.10;;;3.33;;
50769;SDS011;36740;48.698;11.472;2024-03-23T05:41:31;5.55;;;2.97;;
50769;SDS011;36740;48.698;11.472;2024-03-23T05:44:17;4.90;;;3.58;;
50769;SDS011;36740;48.698;11.472;2024-03-23T05:47:03;7.88;;;3.00;;
50769;SDS011;36740;48.698;11.472;2024-03-23T05:49:49;5.20;;;3.03;;
50769;SDS011;36740;48.698;11.472;2024-03-23T05:52:43;10.38;;;4.15;;
50769;SDS011;36740;48.698;11.472;2024-03-23T05:55:31;6.95;;;3.67;;
50769;SDS011;36740;48.698;11.472;2024-03-23T05:58:17;3.53;;;2.95;;
50769;SDS011;36740;48.698;11.472;2024-03-23T06:01:06;6.10;;;3.40;;
50769;SDS011;36740;48.698;11.472;2024-03-23T06:03:52;4.40;;;2.95;;
50769;SDS011;36740;48.698;11.472;2024-03-23T06:06:41;5.50;;;3.72;;
50769;SDS011;36740;48.698;11.472;2024-03-23T06:09:27;7.82;;;4.20;;
50769;SDS011;36740;48.698;11.472;2024-03-23T06:12:16;7.88;;;4.50;;
50769;SDS011;36740;48.698;11.472;2024-03-23T06:15:02;7.78;;;3.40;;
50769;SDS011;36740;48.698;11.472;2024-03-23T06:17:48;7.22;;;4.63;;
50769;SDS011;36740;48.698;11.472;2024-03-23T06:20:35;7.30;;;4.60;;
50769;SDS011;36740;48.698;11.472;2024-03-23T06:23:23;7.18;;;3.17;;
50769;SDS011;36740;48.698;11.472;2024-03-23T06:26:10;5.80;;;3.25;;
50769;SDS011;36740;48.698;11.472;2024-03-23T06:28:56;5.55;;;3.65;;
50769;SDS011;36740;48.698;11.472;2024-03-23T06:31:42;3.88;;;3.28;;
50769;SDS011;36740;48.698;11.472;2024-03-23T06:34:28;3.83;;;2.45;;
50769;SDS011;36740;48.698;11.472;2024-03-23T06:37:17;5.47;;;3.42;;
50769;SDS011;36740;48.698;11.472;2024-03-23T06:40:04;4.25;;;2.85;;
50769;SDS011;36740;48.698;11.472;2024-03-23T06:42:56;9.80;;;3.70;;
50769;SDS011;36740;48.698;11.472;2024-03-23T06:45:42;4.22;;;2.65;;
50769;SDS011;36740;48.698;11.472;2024-03-23T06:48:30;5.07;;;3.33;;
50769;SDS011;36740;48.698;11.472;2024-03-23T06:51:16;8.75;;;3.25;;
50769;SDS011;36740;48.698;11.472;2024-03-23T06:54:02;2.50;;;2.30;;
50769;SDS011;36740;48.698;11.472;2024-03-23T06:56:51;4.90;;;2.70;;
50769;SDS011;36740;48.698;11.472;2024-03-23T06:59:37;5.43;;;3.38;;
50769;SDS011;36740;48.698;11.472;2024-03-23T07:02:24;7.13;;;3.03;;
50769;SDS011;36740;48.698;11.472;2024-03-23T07:05:10;4.68;;;2.80;;
50769;SDS011;36740;48.698;11.472;2024-03-23T07:07:56;5.18;;;2.45;;
50769;SDS011;36740;48.698;11.472;2024-03-23T07:10:41;7.63;;;3.70;;
50769;SDS011;36740;48.698;11.472;2024-03-23T07:13:27;8.50;;;2.78;;
50769;SDS011;36740;48.698;11.472;2024-03-23T07:16:13;2.67;;;2.47;;
50769;SDS011;36740;48.698;11.472;2024-03-23T07:18:59;7.28;;;4.18;;
50769;SDS011;36740;48.698;11.472;2024-03-23T07:21:24;7.72;;;3.50;;
50769;SDS011;36740;48.698;11.472;2024-03-23T07:23:49;7.40;;;4.28;;
50769;SDS011;36740;48.698;11.472;2024-03-23T07:26:15;6.28;;;3.75;;
50769;SDS011;36740;48.698;11.472;2024-03-23T07:28:44;9.13;;;5.05;;
50769;SDS011;36740;48.698;11.472;2024-03-23T07:31:11;12.23;;;5.50;;
50769;SDS011;36740;48.698;11.472;2024-03-23T07:33:47;8.52;;;6.25;;
50769;SDS011;36740;48.698;11.472;2024-03-23T07:36:14;15.10;;;5.55;;
50769;SDS011;36740;48.698;11.472;2024-03-23T07:38:41;8.82;;;6.57;;
50769;SDS011;36740;48.698;11.472;2024-03-23T07:41:10;11.90;;;6.70;;
50769;SDS011;36740;48.698;11.472;2024-03-23T07:43:37;8.07;;;5.05;;
50769;SDS011;36740;48.698;11.472;2024-03-23T07:46:04;14.88;;;7.22;;
50769;SDS011;36740;48.698;11.472;2024-03-23T07:48:30;12.77;;;6.25;;
50769;SDS011;36740;48.698;11.472;2024-03-23T07:51:02;7.90;;;5.68;;
50769;SDS011;36740;48.698;11.472;2024-03-23T07:53:33;8.80;;;5.22;;
50769;SDS011;36740;48.698;11.472;2024-03-23T07:55:59;7.10;;;5.20;;
50769;SDS011;36740;48.698;11.472;2024-03-23T07:58:26;9.88;;;5.35;;
50769;SDS011;36740;48.698;11.472;2024-03-23T08:00:55;14.27;;;6.20;;
50769;SDS011;36740;48.698;11.472;2024-03-23T08:03:22;13.23;;;7.07;;
50769;SDS011;36740;48.698;11.472;2024-03-23T08:05:48;8.02;;;4.97;;
50769;SDS011;36740;48.698;11.472;2024-03-23T08:08:14;8.50;;;5.00;;
50769;SDS011;36740;48.698;11.472;2024-03-23T08:10:50;4.90;;;4.20;;
50769;SDS011;36740;48.698;11.472;2024-03-23T08:13:15;7.65;;;5.13;;
50769;SDS011;36740;48.698;11.472;2024-03-23T08:15:41;6.88;;;4.72;;
50769;SDS011;36740;48.698;11.472;2024-03-23T08:18:07;5.78;;;4.18;;
50769;SDS011;36740;48.698;11.472;2024-03-23T08:20:33;6.70;;;4.47;;
50769;SDS011;36740;48.698;11.472;2024-03-23T08:22:58;6.13;;;4.50;;
50769;SDS011;36740;48.698;11.472;2024-03-23T08:25:24;7.68;;;5.35;;
50769;SDS011;36740;48.698;11.472;2024-03-23T08:27:49;8.25;;;4.50;;
50769;SDS011;36740;48.698;11.472;2024-03-23T08:30:14;11.70;;;5.50;;
50769;SDS011;36740;48.698;11.472;2024-03-23T08:32:40;7.15;;;4.30;;
50769;SDS011;36740;48.698;11.472;2024-03-23T08:35:07;7.45;;;4.85;;
50769;SDS011;36740;48.698;11.472;2024-03-23T08:37:33;8.95;;;4.50;;
50769;SDS011;36740;48.698;11.472;2024-03-23T08:39:58;16.33;;;6.10;;
50769;SDS011;36740;48.698;11.472;2024-03-23T08:42:24;10.85;;;5.55;;
50769;SDS011;36740;48.698;11.472;2024-03-23T08:44:52;9.85;;;4.95;;
50769;SDS011;36740;48.698;11.472;2024-03-23T08:47:18;7.55;;;4.43;;
50769;SDS011;36740;48.698;11.472;2024-03-23T08:49:46;5.93;;;3.88;;
50769;SDS011;36740;48.698;11.472;2024-03-23T08:52:12;6.93;;;3.60;;
50769;SDS011;36740;48.698;11.472;2024-03-23T08:54:37;5.00;;;3.15;;
50769;SDS011;36740;48.698;11.472;2024-03-23T08:57:03;5.57;;;3.90;;
50769;SDS011;36740;48.698;11.472;2024-03-23T08:59:28;5.05;;;2.53;;
50769;SDS011;36740;48.698;11.472;2024-03-23T09:01:54;4.97;;;2.88;;
50769;SDS011;36740;48.698;11.472;2024-03-23T09:04:19;4.22;;;2.35;;
50769;SDS011;36740;48.698;11.472;2024-03-23T09:06:45;5.15;;;3.53;;
50769;SDS011;36740;48.698;11.472;2024-03-23T09:09:10;3.83;;;3.10;;
50769;SDS011;36740;48.698;11.472;2024-03-23T09:11:36;5.32;;;3.00;;
50769;SDS011;36740;48.698;11.472;2024-03-23T09:14:02;5.03;;;2.97;;
50769;SDS011;36740;48.698;11.472;2024-03-23T09:16:28;5.63;;;3.10;;
50769;SDS011;36740;48.698;11.472;2024-03-23T09:18:54;5.22;;;3.58;;
50769;SDS011;36740;48.698;11.472;2024-03-23T09:21:19;4.70;;;3.10;;
50769;SDS011;36740;48.698;11.472;2024-03-23T09:23:45;3.10;;;2.33;;
50769;SDS011;36740;48.698;11.472;2024-03-23T09:26:11;4.35;;;2.13;;
50769;SDS011;36740;48.698;11.472;2024-03-23T09:28:37;4.68;;;2.78;;
50769;SDS011;36740;48.698;11.472;2024-03-23T09:31:03;4.45;;;2.60;;
50769;SDS011;36740;48.698;11.472;2024-03-23T09:33:29;2.97;;;2.20;;
50769;SDS011;36740;48.698;11.472;2024-03-23T09:35:54;3.63;;;2.40;;
50769;SDS011;36740;48.698;11.472;2024-03-23T09:38:21;2.05;;;1.70;;
50769;SDS011;36740;48.698;11.472;2024-03-23T09:40:47;4.40;;;2.90;;
50769;SDS011;36740;48.698;11.472;2024-03-23T09:43:18;2.92;;;2.17;;
50769;SDS011;36740;48.698;11.472;2024-03-23T09:45:44;3.78;;;2.58;;
50769;SDS011;36740;48.698;11.472;2024-03-23T09:48:10;3.33;;;2.30;;
50769;SDS011;36740;48.698;11.472;2024-03-23T09:50:37;4.03;;;2.20;;
50769;SDS011;36740;48.698;11.472;2024-03-23T09:53:03;3.63;;;1.52;;
50769;SDS011;36740;48.698;11.472;2024-03-23T09:55:34;3.53;;;1.45;;
50769;SDS011;36740;48.698;11.472;2024-03-23T09:58:03;1.95;;;1.48;;
50769;SDS011;36740;48.698;11.472;2024-03-23T10:00:32;1.42;;;1.20;;
50769;SDS011;36740;48.698;11.472;2024-03-23T10:02:59;1.33;;;1.17;;
50769;SDS011;36740;48.698;11.472;2024-03-23T10:05:30;1.20;;;1.15;;
50769;SDS011;36740;48.698;11.472;2024-03-23T10:10:39;1.58;;;1.48;;
50769;SDS011;36740;48.698;11.472;2024-03-23T10:13:09;10.77;;;2.30;;
50769;SDS011;36740;48.698;11.472;2024-03-23T10:15:38;2.78;;;1.50;;
50769;SDS011;36740;48.698;11.472;2024-03-23T10:20:41;3.00;;;1.35;;
50769;SDS011;36740;48.698;11.472;2024-03-23T10:23:06;2.08;;;1.52;;
50769;SDS011;36740;48.698;11.472;2024-03-23T10:25:41;1.85;;;1.35;;
50769;SDS011;36740;48.698;11.472;2024-03-23T10:28:06;2.67;;;1.48;;
50769;SDS011;36740;48.698;11.472;2024-03-23T10:30:32;1.80;;;1.70;;
50769;SDS011;36740;48.698;11.472;2024-03-23T10:33:10;1.27;;;1.05;;
50769;SDS011;36740;48.698;11.472;2024-03-23T10:35:40;2.92;;;1.63;;
50769;SDS011;36740;48.698;11.472;2024-03-23T10:38:05;1.50;;;1.40;;
50769;SDS011;36740;48.698;11.472;2024-03-23T10:40:35;1.30;;;1.20;;
50769;SDS011;36740;48.698;11.472;2024-03-23T10:43:48;1.83;;;1.65;;
50769;SDS011;36740;48.698;11.472;2024-03-23T10:46:15;1.73;;;1.50;;
50769;SDS011;36740;48.698;11.472;2024-03-23T10:48:40;1.55;;;1.38;;
50769;SDS011;36740;48.698;11.472;2024-03-23T10:51:07;1.95;;;1.35;;
50769;SDS011;36740;48.698;11.472;2024-03-23T10:53:33;2.05;;;1.77;;
50769;SDS011;36740;48.698;11.472;2024-03-23T10:55:59;2.55;;;1.48;;
50769;SDS011;36740;48.698;11.472;2024-03-23T10:58:44;2.50;;;1.65;;
50769;SDS011;36740;48.698;11.472;2024-03-23T11:01:14;1.73;;;1.63;;
50769;SDS011;36740;48.698;11.472;2024-03-23T11:03:44;1.50;;;1.40;;
50769;SDS011;36740;48.698;11.472;2024-03-23T11:06:12;2.78;;;1.88;;
50769;SDS011;36740;48.698;11.472;2024-03-23T11:09:00;2.70;;;1.50;;
50769;SDS011;36740;48.698;11.472;2024-03-23T11:11:26;2.40;;;1.52;;
50769;SDS011;36740;48.698;11.472;2024-03-23T11:13:53;4.88;;;2.38;;
50769;SDS011;36740;48.698;11.472;2024-03-23T11:16:23;1.85;;;1.55;;
50769;SDS011;36740;48.698;11.472;2024-03-23T11:22:00;3.30;;;2.38;;
50769;SDS011;36740;48.698;11.472;2024-03-23T11:24:26;2.03;;;1.88;;
50769;SDS011;36740;48.698;11.472;2024-03-23T11:26:51;2.00;;;1.67;;
50769;SDS011;36740;48.698;11.472;2024-03-23T11:29:17;2.45;;;1.90;;
50769;SDS011;36740;48.698;11.472;2024-03-23T11:31:49;3.40;;;2.30;;
50769;SDS011;36740;48.698;11.472;2024-03-23T11:34:16;3.50;;;2.17;;
50769;SDS011;36740;48.698;11.472;2024-03-23T11:36:42;1.90;;;1.80;;
50769;SDS011;36740;48.698;11.472;2024-03-23T11:39:14;2.55;;;1.92;;
50769;SDS011;36740;48.698;11.472;2024-03-23T11:41:45;4.53;;;2.72;;
50769;SDS011;36740;48.698;11.472;2024-03-23T11:44:28;3.63;;;2.10;;
50769;SDS011;36740;48.698;11.472;2024-03-23T11:47:31;4.55;;;2.83;;
50769;SDS011;36740;48.698;11.472;2024-03-23T11:49:57;5.00;;;2.67;;
50769;SDS011;36740;48.698;11.472;2024-03-23T11:52:24;4.20;;;2.05;;
50769;SDS011;36740;48.698;11.472;2024-03-23T11:54:49;7.82;;;3.15;;
50769;SDS011;36740;48.698;11.472;2024-03-23T11:57:17;5.53;;;2.95;;
50769;SDS011;36740;48.698;11.472;2024-03-23T11:59:43;5.68;;;2.38;;
50769;SDS011;36740;48.698;11.472;2024-03-23T12:02:09;7.07;;;2.53;;
50769;SDS011;36740;48.698;11.472;2024-03-23T12:04:36;3.65;;;2.63;;
50769;SDS011;36740;48.698;11.472;2024-03-23T12:07:21;4.13;;;2.78;;
50769;SDS011;36740;48.698;11.472;2024-03-23T12:10:08;3.63;;;2.78;;
50769;SDS011;36740;48.698;11.472;2024-03-23T12:12:32;3.78;;;2.70;;
50769;SDS011;36740;48.698;11.472;2024-03-23T12:15:02;5.38;;;3.25;;
50769;SDS011;36740;48.698;11.472;2024-03-23T12:17:33;4.53;;;3.15;;
50769;SDS011;36740;48.698;11.472;2024-03-23T12:20:00;7.88;;;3.40;;
50769;SDS011;36740;48.698;11.472;2024-03-23T12:22:26;4.53;;;3.33;;
50769;SDS011;36740;48.698;11.472;2024-03-23T12:24:52;6.50;;;3.05;;
50769;SDS011;36740;48.698;11.472;2024-03-23T12:27:36;5.70;;;3.22;;
50769;SDS011;36740;48.698;11.472;2024-03-23T12:30:21;8.18;;;4.15;;
50769;SDS011;36740;48.698;11.472;2024-03-23T12:32:47;4.75;;;2.80;;
50769;SDS011;36740;48.698;11.472;2024-03-23T12:35:12;4.60;;;2.25;;
50769;SDS011;36740;48.698;11.472;2024-03-23T12:37:38;5.47;;;2.97;;
50769;SDS011;36740;48.698;11.472;2024-03-23T12:40:04;4.82;;;3.47;;
50769;SDS011;36740;48.698;11.472;2024-03-23T12:42:30;11.25;;;3.10;;
50769;SDS011;36740;48.698;11.472;2024-03-23T12:45:17;3.20;;;2.67;;
50769;SDS011;36740;48.698;11.472;2024-03-23T12:47:45;4.93;;;3.38;;
50769;SDS011;36740;48.698;11.472;2024-03-23T12:50:10;13.68;;;2.97;;
50769;SDS011;36740;48.698;11.472;2024-03-23T12:52:36;5.63;;;2.83;;
50769;SDS011;36740;48.698;11.472;2024-03-23T12:55:02;5.60;;;2.78;;
50769;SDS011;36740;48.698;11.472;2024-03-23T12:57:32;5.28;;;3.45;;
50769;SDS011;36740;48.698;11.472;2024-03-23T12:59:58;9.80;;;3.42;;
50769;SDS011;36740;48.698;11.472;2024-03-23T13:02:24;7.20;;;3.30;;
50769;SDS011;36740;48.698;11.472;2024-03-23T13:04:50;6.85;;;3.80;;
50769;SDS011;36740;48.698;11.472;2024-03-23T13:07:17;6.30;;;3.65;;
50769;SDS011;36740;48.698;11.472;2024-03-23T13:09:43;6.30;;;2.90;;
50769;SDS011;36740;48.698;11.472;2024-03-23T13:12:09;6.70;;;3.08;;
50769;SDS011;36740;48.698;11.472;2024-03-23T13:14:37;3.83;;;3.00;;
50769;SDS011;36740;48.698;11.472;2024-03-23T13:17:03;3.47;;;2.38;;
50769;SDS011;36740;48.698;11.472;2024-03-23T13:19:29;9.52;;;4.25;;
50769;SDS011;36740;48.698;11.472;2024-03-23T13:21:56;9.27;;;4.18;;
50769;SDS011;36740;48.698;11.472;2024-03-23T13:24:23;4.82;;;3.10;;
50769;SDS011;36740;48.698;11.472;2024-03-23T13:26:49;9.15;;;3.50;;
50769;SDS011;36740;48.698;11.472;2024-03-23T13:29:19;7.68;;;4.03;;
50769;SDS011;36740;48.698;11.472;2024-03-23T13:31:45;7.22;;;5.35;;
50769;SDS011;36740;48.698;11.472;2024-03-23T13:34:12;16.00;;;6.03;;
50769;SDS011;36740;48.698;11.472;2024-03-23T13:36:44;9.32;;;4.88;;
50769;SDS011;36740;48.698;11.472;2024-03-23T13:39:11;7.82;;;4.85;;
50769;SDS011;36740;48.698;11.472;2024-03-23T13:41:38;11.60;;;5.20;;
50769;SDS011;36740;48.698;11.472;2024-03-23T13:44:07;11.52;;;4.80;;
50769;SDS011;36740;48.698;11.472;2024-03-23T13:46:37;12.68;;;5.97;;
50769;SDS011;36740;48.698;11.472;2024-03-23T13:49:04;7.05;;;4.25;;
50769;SDS011;36740;48.698;11.472;2024-03-23T13:51:30;12.23;;;4.85;;
50769;SDS011;36740;48.698;11.472;2024-03-23T13:53:56;12.82;;;3.85;;
50769;SDS011;36740;48.698;11.472;2024-03-23T13:56:22;8.13;;;4.10;;
50769;SDS011;36740;48.698;11.472;2024-03-23T13:58:48;9.60;;;3.90;;
50769;SDS011;36740;48.698;11.472;2024-03-23T14:01:15;12.82;;;5.43;;
50769;SDS011;36740;48.698;11.472;2024-03-23T14:03:44;13.32;;;4.32;;
50769;SDS011;36740;48.698;11.472;2024-03-23T14:06:10;8.50;;;4.35;;
50769;SDS011;36740;48.698;11.472;2024-03-23T14:08:36;10.40;;;5.30;;
50769;SDS011;36740;48.698;11.472;2024-03-23T14:11:05;8.32;;;4.25;;
50769;SDS011;36740;48.698;11.472;2024-03-23T14:13:32;6.20;;;3.95;;
50769;SDS011;36740;48.698;11.472;2024-03-23T14:15:58;9.07;;;4.70;;
50769;SDS011;36740;48.698;11.472;2024-03-23T14:18:40;7.70;;;4.63;;
50769;SDS011;36740;48.698;11.472;2024-03-23T14:21:14;11.93;;;4.53;;
50769;SDS011;36740;48.698;11.472;2024-03-23T14:24:18;8.77;;;4.80;;
50769;SDS011;36740;48.698;11.472;2024-03-23T14:27:54;12.30;;;4.18;;
50769;SDS011;36740;48.698;11.472;2024-03-23T14:31:24;16.23;;;4.45;;
50769;SDS011;36740;48.698;11.472;2024-03-23T14:42:09;3.60;;;2.15;;
50769;SDS011;36740;48.698;11.472;2024-03-23T14:55:54;4.82;;;3.13;;
50769;SDS011;36740;48.698;11.472;2024-03-23T15:13:35;3.78;;;2.38;;
50769;SDS011;36740;48.698;11.472;2024-03-23T15:40:30;5.72;;;2.65;;
50769;SDS011;36740;48.698;11.472;2024-03-23T15:42:58;3.17;;;2.10;;
50769;SDS011;36740;48.698;11.472;2024-03-23T15:45:34;6.28;;;2.80;;
50769;SDS011;36740;48.698;11.472;2024-03-23T15:48:41;2.55;;;2.10;;
50769;SDS011;36740;48.698;11.472;2024-03-23T15:51:42;2.40;;;1.73;;
50769;SDS011;36740;48.698;11.472;2024-03-23T15:54:32;4.55;;;2.00;;
50769;SDS011;36740;48.698;11.472;2024-03-23T15:57:18;7.72;;;1.98;;
50769;SDS011;36740;48.698;11.472;2024-03-23T16:00:30;9.23;;;2.83;;
50769;SDS011;36740;48.698;11.472;2024-03-23T16:03:24;6.70;;;2.50;;
50769;SDS011;36740;48.698;11.472;2024-03-23T16:06:23;5.38;;;2.45;;
50769;SDS011;36740;48.698;11.472;2024-03-23T16:09:32;2.70;;;2.08;;
50769;SDS011;36740;48.698;11.472;2024-03-23T16:12:43;3.72;;;2.20;;
50769;SDS011;36740;48.698;11.472;2024-03-23T16:16:04;6.13;;;2.45;;
50769;SDS011;36740;48.698;11.472;2024-03-23T16:18:55;5.28;;;2.28;;
50769;SDS011;36740;48.698;11.472;2024-03-23T16:22:17;2.83;;;1.88;;
50769;SDS011;36740;48.698;11.472;2024-03-23T16:25:31;3.95;;;2.50;;
50769;SDS011;36740;48.698;11.472;2024-03-23T16:31:57;9.75;;;2.63;;
50769;SDS011;36740;48.698;11.472;2024-03-23T16:34:51;6.55;;;2.67;;
50769;SDS011;36740;48.698;11.472;2024-03-23T16:38:11;3.92;;;2.40;;
50769;SDS011;36740;48.698;11.472;2024-03-23T16:41:23;3.40;;;2.28;;
50769;SDS011;36740;48.698;11.472;2024-03-23T16:44:37;5.93;;;2.40;;
50769;SDS011;36740;48.698;11.472;2024-03-23T16:47:32;5.28;;;2.70;;
50769;SDS011;36740;48.698;11.472;2024-03-23T16:50:23;2.13;;;1.60;;
50769;SDS011;36740;48.698;11.472;2024-03-23T16:53:40;3.15;;;2.13;;
50769;SDS011;36740;48.698;11.472;2024-03-23T16:56:43;2.47;;;1.95;;
50769;SDS011;36740;48.698;11.472;2024-03-23T16:59:32;12.40;;;3.17;;
50769;SDS011;36740;48.698;11.472;2024-03-23T17:02:29;4.88;;;2.45;;
50769;SDS011;36740;48.698;11.472;2024-03-23T17:05:25;1.67;;;1.58;;
50769;SDS011;36740;48.698;11.472;2024-03-23T17:08:27;2.67;;;1.90;;
50769;SDS011;36740;48.698;11.472;2024-03-23T17:11:32;3.75;;;3.10;;
50769;SDS011;36740;48.698;11.472;2024-03-23T17:14:42;1.13;;;1.08;;
50769;SDS011;36740;48.698;11.472;2024-03-23T17:17:51;21.17;;;11.40;;
50769;SDS011;36740;48.698;11.472;2024-03-23T17:20:43;4.78;;;2.47;;
50769;SDS011;36740;48.698;11.472;2024-03-23T17:24:37;3.42;;;1.88;;
50769;SDS011;36740;48.698;11.472;2024-03-23T17:31:22;4.90;;;2.78;;
50769;SDS011;36740;48.698;11.472;2024-03-23T17:34:18;4.15;;;1.67;;
50769;SDS011;36740;48.698;11.472;2024-03-23T17:36:44;2.65;;;1.58;;
50769;SDS011;36740;48.698;11.472;2024-03-23T17:39:10;1.98;;;1.77;;
50769;SDS011;36740;48.698;11.472;2024-03-23T17:41:37;4.55;;;2.17;;
50769;SDS011;36740;48.698;11.472;2024-03-23T17:44:06;5.13;;;2.28;;
50769;SDS011;36740;48.698;11.472;2024-03-23T17:47:06;3.63;;;2.45;;
50769;SDS011;36740;48.698;11.472;2024-03-23T17:52:14;2.35;;;1.65;;
50769;SDS011;36740;48.698;11.472;2024-03-23T18:05:18;16.42;;;7.65;;
50769;SDS011;36740;48.698;11.472;2024-03-23T18:11:27;5.00;;;3.03;;
50769;SDS011;36740;48.698;11.472;2024-03-23T18:17:30;6.20;;;3.63;;
50769;SDS011;36740;48.698;11.472;2024-03-23T18:19:58;7.13;;;2.85;;
50769;SDS011;36740;48.698;11.472;2024-03-23T18:22:41;8.00;;;3.80;;
50769;SDS011;36740;48.698;11.472;2024-03-23T18:35:37;5.03;;;3.05;;
50769;SDS011;36740;48.698;11.472;2024-03-23T18:38:45;15.30;;;10.85;;
50769;SDS011;36740;48.698;11.472;2024-03-23T18:41:48;22.95;;;13.52;;
50769;SDS011;36740;48.698;11.472;2024-03-23T18:44:50;14.20;;;10.40;;
50769;SDS011;36740;48.698;11.472;2024-03-23T18:47:49;18.58;;;9.48;;
50769;SDS011;36740;48.698;11.472;2024-03-23T18:53:54;4.00;;;2.63;;
50769;SDS011;36740;48.698;11.472;2024-03-23T18:57:18;3.97;;;2.92;;